createdAt,value
2018-05-17T00:04:25.768Z,13.86
2018-05-17T00:10:30.265Z,13.76
2018-05-17T00:16:35.454Z,13.79
2018-05-17T00:22:39.820Z,13.67
2018-05-17T00:28:44.162Z,13.71
2018-05-17T00:34:51.399Z,13.71
2018-05-17T00:40:55.768Z,13.71
2018-05-17T00:47:00.279Z,13.54
2018-05-17T00:53:22.482Z,13.49
2018-05-17T00:59:26.842Z,13.45
2018-05-17T01:05:31.218Z,13.39
2018-05-17T01:11:36.341Z,13.19
2018-05-17T01:17:40.740Z,13.08
2018-05-17T01:23:45.108Z,13.04
2018-05-17T01:29:49.469Z,12.85
2018-05-17T01:35:54.939Z,12.81
2018-05-17T01:41:59.456Z,12.80
2018-05-17T01:48:03.942Z,12.75
2018-05-17T01:54:08.319Z,12.59
2018-05-17T02:00:13.476Z,12.54
2018-05-17T02:06:17.933Z,12.40
2018-05-17T02:12:22.562Z,12.43
2018-05-17T02:18:26.941Z,12.38
2018-05-17T02:24:31.419Z,12.27
2018-05-17T02:30:36.867Z,12.44
2018-05-17T02:36:42.164Z,12.37
2018-05-17T02:42:46.638Z,12.13
2018-05-17T02:48:52.604Z,12.28
2018-05-17T02:54:57.081Z,12.07
2018-05-17T03:01:01.669Z,11.90
2018-05-17T03:07:06.256Z,11.91
2018-05-17T03:13:11.590Z,11.53
2018-05-17T03:19:16.141Z,11.56
2018-05-17T03:25:20.597Z,11.62
2018-05-17T03:31:25.952Z,11.42
2018-05-17T03:37:30.401Z,11.33
2018-05-17T03:43:34.951Z,11.41
2018-05-17T03:49:39.720Z,11.32
2018-05-17T03:55:44.299Z,11.34
2018-05-17T04:02:06.435Z,11.41
2018-05-17T04:08:11.566Z,11.48
2018-05-17T04:14:15.912Z,11.43
2018-05-17T04:20:21.679Z,11.25
2018-05-17T04:26:26.256Z,11.26
2018-05-17T04:32:30.882Z,11.45
2018-05-17T04:38:35.794Z,11.61
2018-05-17T04:44:40.784Z,11.76
2018-05-17T04:50:45.404Z,11.67
2018-05-17T04:56:50.925Z,11.54
2018-05-17T05:02:55.818Z,11.42
2018-05-17T05:09:00.160Z,11.31
2018-05-17T05:15:04.703Z,11.27
2018-05-17T05:21:09.088Z,11.31
2018-05-17T05:27:13.432Z,11.13
2018-05-17T05:33:17.804Z,10.98
2018-05-17T05:39:23.018Z,10.91
2018-05-17T05:45:28.309Z,10.93
2018-05-17T05:51:32.656Z,11.08
2018-05-17T05:57:37.769Z,10.95
2018-05-17T06:03:42.141Z,11.11
2018-05-17T06:09:46.491Z,11.38
2018-05-17T06:15:51.649Z,11.67
2018-05-17T06:21:56.015Z,11.79
2018-05-17T06:28:00.380Z,11.97
2018-05-17T06:34:04.820Z,12.10
2018-05-17T06:40:09.935Z,12.15
2018-05-17T06:46:14.316Z,12.12
2018-05-17T06:52:18.710Z,11.90
2018-05-17T06:58:24.592Z,11.84
2018-05-17T07:04:28.967Z,11.41
2018-05-17T07:10:33.434Z,11.35
2018-05-17T07:16:38.658Z,11.34
2018-05-17T07:22:43.004Z,11.44
2018-05-17T07:28:47.369Z,11.52
2018-05-17T07:34:52.915Z,11.56
2018-05-17T07:40:57.267Z,12.01
2018-05-17T07:47:01.660Z,12.31
2018-05-17T07:53:06.170Z,12.47
2018-05-17T07:59:10.581Z,12.62
2018-05-17T08:05:15.710Z,12.85
2018-05-17T08:11:20.182Z,13.01
2018-05-17T08:17:24.628Z,13.48
2018-05-17T08:23:29.753Z,14.03
2018-05-17T08:29:34.096Z,14.76
2018-05-17T08:35:39.294Z,15.23
2018-05-17T08:41:43.818Z,15.12
2018-05-17T08:47:48.201Z,15.09
2018-05-17T09:06:52.585Z,14.27
2018-05-17T09:12:57.069Z,14.63
2018-05-17T09:19:01.446Z,15.29
2018-05-17T09:25:05.983Z,16.21
2018-05-17T09:31:10.385Z,16.54
2018-05-17T09:37:14.755Z,16.76
2018-05-17T09:43:19.980Z,16.75
2018-05-17T09:49:24.579Z,16.62
2018-05-17T09:55:28.957Z,16.53
2018-05-17T10:01:34.141Z,16.61
2018-05-17T10:07:38.668Z,16.58
2018-05-17T10:13:44.037Z,16.20
2018-05-17T10:19:48.393Z,16.59
2018-05-17T10:25:52.870Z,17.41
2018-05-17T10:31:57.339Z,17.90
2018-05-17T10:38:01.697Z,17.47
2018-05-17T10:44:06.286Z,17.35
2018-05-17T10:50:10.641Z,17.24
2018-05-17T10:56:14.993Z,17.75
2018-05-17T11:02:20.337Z,18.39
2018-05-17T11:08:24.740Z,19.31
2018-05-17T11:14:29.489Z,19.38
2018-05-17T11:20:33.894Z,19.12
2018-05-17T11:26:38.283Z,20.01
2018-05-17T11:32:42.645Z,19.50
2018-05-17T11:38:46.989Z,19.50
2018-05-17T11:44:51.670Z,20.04
2018-05-17T11:50:56.030Z,20.26
2018-05-17T11:57:00.383Z,20.77
2018-05-17T12:03:05.494Z,19.84
2018-05-17T12:09:09.889Z,20.32
2018-05-17T12:15:14.280Z,21.11
2018-05-17T12:21:18.772Z,22.08
2018-05-17T12:27:24.774Z,22.69
2018-05-17T12:33:29.196Z,22.35
2018-05-17T12:39:34.329Z,22.97
2018-05-17T12:45:38.725Z,23.73
2018-05-17T12:51:43.097Z,23.39
2018-05-17T12:57:47.586Z,22.98
2018-05-17T13:03:52.138Z,23.18
2018-05-17T13:09:56.999Z,22.57
2018-05-17T13:16:01.470Z,24.47
2018-05-17T13:22:06.684Z,24.08
2018-05-17T13:28:11.271Z,23.41
2018-05-17T13:34:16.447Z,22.44
2018-05-17T13:40:20.850Z,22.31
2018-05-17T13:46:25.220Z,22.50
2018-05-17T13:52:29.621Z,23.81
2018-05-17T13:58:35.607Z,23.61
2018-05-17T14:04:40.080Z,24.68
2018-05-17T14:10:45.272Z,24.60
2018-05-17T14:16:49.804Z,23.87
2018-05-17T14:22:54.942Z,24.42
2018-05-17T14:28:59.294Z,25.73
2018-05-17T14:35:03.813Z,25.74
2018-05-17T14:41:08.160Z,26.70
2018-05-17T14:47:12.589Z,25.47
2018-05-17T14:53:16.979Z,24.18
2018-05-17T14:59:23.477Z,26.04
2018-05-17T15:05:27.924Z,25.55
2018-05-17T15:11:32.329Z,27.27
2018-05-17T15:17:36.890Z,27.02
2018-05-17T15:23:41.653Z,27.06
2018-05-17T15:29:46.095Z,26.61
2018-05-17T15:35:50.525Z,26.16
2018-05-17T15:41:55.656Z,26.14
2018-05-17T15:48:00.079Z,25.27
2018-05-17T15:54:04.438Z,25.06
2018-05-17T16:00:08.836Z,24.40
2018-05-17T16:06:13.268Z,24.96
2018-05-17T16:12:18.422Z,24.84
2018-05-17T16:18:23.824Z,24.24
2018-05-17T16:24:29.036Z,24.35
2018-05-17T16:30:33.465Z,23.87
2018-05-17T16:36:37.841Z,24.29
2018-05-17T16:42:42.234Z,24.86
2018-05-17T16:48:46.577Z,24.92
2018-05-17T16:54:51.988Z,24.55
2018-05-17T17:00:56.476Z,26.36
2018-05-17T17:07:00.824Z,26.35
2018-05-17T17:13:05.228Z,25.67
2018-05-17T17:19:09.609Z,24.02
2018-05-17T17:25:14.009Z,24.35
2018-05-17T17:31:18.385Z,23.22
2018-05-17T17:37:23.423Z,23.63
2018-05-17T17:43:27.803Z,22.61
2018-05-17T17:49:32.194Z,22.40
2018-05-17T17:55:36.630Z,21.60
2018-05-17T18:01:41.766Z,20.71
2018-05-17T18:07:46.162Z,19.75
2018-05-17T18:13:50.844Z,19.49
2018-05-17T18:19:56.006Z,18.13
2018-05-17T18:26:00.428Z,16.88
2018-05-17T18:32:05.534Z,15.91
2018-05-17T18:38:10.656Z,15.33
2018-05-17T18:44:15.064Z,15.05
2018-05-17T18:50:19.629Z,14.80
2018-05-17T18:56:24.319Z,14.41
2018-05-17T19:02:28.729Z,14.29
2018-05-17T19:08:34.029Z,14.13
2018-05-17T19:14:38.436Z,13.97
2018-05-17T19:20:42.883Z,14.10
2018-05-17T19:26:48.012Z,14.13
2018-05-17T19:32:52.717Z,14.14
2018-05-17T19:38:57.185Z,14.05
2018-05-17T19:45:01.575Z,13.99
2018-05-17T19:51:06.023Z,13.90
2018-05-17T19:57:10.380Z,13.72
2018-05-17T20:03:14.737Z,13.61
2018-05-17T20:09:19.971Z,13.39
2018-05-17T20:15:24.490Z,13.43
2018-05-17T20:21:29.124Z,13.34
2018-05-17T20:27:33.515Z,13.18
2018-05-17T20:33:37.891Z,13.11
2018-05-17T20:39:42.286Z,13.11
2018-05-17T20:45:46.719Z,13.09
2018-05-17T20:51:52.194Z,12.95
2018-05-17T20:57:56.705Z,12.86
2018-05-17T21:04:01.128Z,12.82
2018-05-17T21:10:06.361Z,12.80
2018-05-17T21:16:10.735Z,12.90
2018-05-17T21:22:15.858Z,12.94
2018-05-17T21:28:20.581Z,12.86
2018-05-17T21:34:25.696Z,12.88
2018-05-17T21:40:30.040Z,12.94
2018-05-17T21:46:34.583Z,13.00
2018-05-17T21:52:38.983Z,12.85
2018-05-17T21:58:44.120Z,12.72
2018-05-17T22:04:48.725Z,12.71
2018-05-17T22:10:54.231Z,12.62
2018-05-17T22:16:58.716Z,12.56
2018-05-17T22:23:03.130Z,12.47
2018-05-17T22:29:07.554Z,12.52
2018-05-17T22:35:12.117Z,12.43
2018-05-17T22:41:16.506Z,12.49
2018-05-17T22:47:21.820Z,12.50
2018-05-17T22:53:26.452Z,12.36
2018-05-17T22:59:31.833Z,12.50
2018-05-17T23:05:36.355Z,12.23
2018-05-17T23:11:40.754Z,12.34
2018-05-17T23:17:46.100Z,12.24
2018-05-17T23:23:51.888Z,12.28
2018-05-17T23:29:56.598Z,12.15
2018-05-17T23:36:01.160Z,11.96
2018-05-17T23:42:05.855Z,11.86
2018-05-17T23:48:10.290Z,11.86
2018-05-17T23:54:14.717Z,11.98
